Time;durP1;ratioP1;P1;durP2;ratioP2;P2;SDS_P1;SDS_P2;PMS_P1;PMS_P2;Temp;Humidity;BMP_temperature;BMP_pressure;BME280_temperature;BME280_humidity;BME280_pressure;Samples;Min_cycle;Max_cycle;Signal;HPM_P1;HPM_P2
2021/05/25 00:00:21;;;;;;;6.78;2.80;;;7.50;99.90;;;;;;5014901;28;20056;-72
2021/05/25 00:02:47;;;;;;;4.32;2.58;;;7.40;99.90;;;;;;5014744;28;20063;-72
2021/05/25 00:05:18;;;;;;;6.68;3.10;;;7.40;99.90;;;;;;5014471;28;20034;-71
2021/05/25 00:07:44;;;;;;;4.93;2.70;;;7.50;99.90;;;;;;5014506;28;20029;-72
2021/05/25 00:10:11;;;;;;;5.20;3.05;;;7.40;99.90;;;;;;5014397;28;20030;-72
2021/05/25 00:12:37;;;;;;;3.55;2.33;;;7.40;99.90;;;;;;5014371;28;20076;-72
2021/05/25 00:15:09;;;;;;;4.00;2.65;;;7.40;99.90;;;;;;5014618;28;20038;-71
2021/05/25 00:17:35;;;;;;;2.88;2.58;;;7.40;99.90;;;;;;5013800;28;20041;-72
2021/05/25 00:20:02;;;;;;;5.97;2.72;;;7.30;99.90;;;;;;5013587;28;20524;-72
2021/05/25 00:22:27;;;;;;;4.13;2.75;;;7.30;99.90;;;;;;5014277;28;20033;-72
2021/05/25 00:24:53;;;;;;;3.78;2.72;;;7.30;99.90;;;;;;5014200;28;20109;-72
2021/05/25 00:27:19;;;;;;;3.97;2.83;;;7.30;99.90;;;;;;5014201;28;20097;-72
2021/05/25 00:29:44;;;;;;;4.38;2.90;;;7.40;99.90;;;;;;5014434;28;20026;-72
2021/05/25 00:32:10;;;;;;;3.53;2.75;;;7.50;99.90;;;;;;5014251;28;20388;-72
2021/05/25 00:34:36;;;;;;;4.25;3.38;;;7.40;99.90;;;;;;5014158;28;20030;-72
2021/05/25 00:37:01;;;;;;;5.70;3.72;;;7.50;99.90;;;;;;5013604;28;20103;-72
2021/05/25 00:39:27;;;;;;;4.63;3.25;;;7.50;99.90;;;;;;5014295;28;20393;-69
2021/05/25 00:41:53;;;;;;;5.75;3.22;;;7.50;99.90;;;;;;5013803;28;20026;-68
2021/05/25 00:44:19;;;;;;;4.43;3.08;;;7.50;99.90;;;;;;5014190;28;20052;-68
2021/05/25 00:46:45;;;;;;;7.78;2.55;;;7.50;99.90;;;;;;5013808;28;20026;-69
2021/05/25 00:49:10;;;;;;;3.42;2.63;;;7.50;99.90;;;;;;5013737;28;20026;-68
2021/05/25 00:51:38;;;;;;;3.60;2.53;;;7.50;99.90;;;;;;5014015;28;20159;-69
2021/05/25 00:54:05;;;;;;;3.30;2.70;;;7.50;99.90;;;;;;5013763;28;20014;-69
2021/05/25 00:56:31;;;;;;;4.43;2.65;;;7.50;99.90;;;;;;4996209;28;20512;-69
2021/05/25 00:58:57;;;;;;;6.35;3.10;;;7.60;99.90;;;;;;5013813;28;20128;-69
2021/05/25 01:01:23;;;;;;;5.05;2.78;;;7.60;99.90;;;;;;5013737;28;20489;-69
2021/05/25 01:03:49;;;;;;;3.60;2.80;;;7.50;99.90;;;;;;5013583;28;20057;-69
2021/05/25 01:06:14;;;;;;;4.63;2.58;;;7.50;99.90;;;;;;5013765;28;20132;-69
2021/05/25 01:08:40;;;;;;;4.05;2.50;;;7.50;99.90;;;;;;5013577;28;20018;-68
2021/05/25 01:11:10;;;;;;;3.92;3.17;;;7.50;99.90;;;;;;5013396;28;20029;-68
2021/05/25 01:13:47;;;;;;;4.07;2.70;;;7.60;99.90;;;;;;5013626;28;20105;-68
2021/05/25 01:16:14;;;;;;;4.45;2.80;;;7.60;99.90;;;;;;5013291;28;20026;-68
2021/05/25 01:18:40;;;;;;;4.45;2.90;;;7.50;99.90;;;;;;5013245;28;20034;-68
2021/05/25 01:21:10;;;;;;;4.32;3.20;;;7.50;99.90;;;;;;5013357;28;20029;-68
2021/05/25 01:23:36;;;;;;;6.07;3.00;;;7.50;99.90;;;;;;4995595;28;20073;-68
2021/05/25 01:26:03;;;;;;;5.57;3.38;;;7.60;99.90;;;;;;5013086;28;20029;-68
2021/05/25 01:28:29;;;;;;;11.25;4.05;;;7.60;99.90;;;;;;5013110;28;20030;-69
2021/05/25 01:30:56;;;;;;;5.32;3.65;;;7.50;99.90;;;;;;5012665;28;20097;-68
2021/05/25 01:33:26;;;;;;;6.03;3.90;;;7.50;99.90;;;;;;5013008;28;20030;-69
2021/05/25 01:35:52;;;;;;;;;;;7.50;99.90;;;;;;5013502;28;20440;-68
2021/05/25 01:38:18;;;;;;;6.22;3.65;;;7.50;99.90;;;;;;5012808;28;19972;-68
2021/05/25 01:40:45;;;;;;;8.90;3.47;;;7.60;99.90;;;;;;5012984;28;20029;-67
2021/05/25 01:43:11;;;;;;;4.20;3.50;;;7.50;99.90;;;;;;5012958;28;20030;-68
2021/05/25 01:45:38;;;;;;;8.00;4.20;;;7.50;99.90;;;;;;4995176;28;20029;-68
2021/05/25 01:48:07;;;;;;;7.28;3.83;;;7.50;99.90;;;;;;5012638;28;20033;-67
2021/05/25 01:50:34;;;;;;;5.43;3.65;;;7.50;99.90;;;;;;5012794;28;20029;-67
2021/05/25 01:53:04;;;;;;;5.75;3.85;;;7.50;99.90;;;;;;5012614;28;20022;-68
2021/05/25 01:55:45;;;;;;;5.82;3.90;;;7.50;99.90;;;;;;5013034;28;20455;-67
2021/05/25 01:58:11;;;;;;;;;;;7.50;99.90;;;;;;5012891;28;20125;-67
2021/05/25 02:00:38;;;;;;;8.10;3.63;;;7.50;99.90;;;;;;5012668;28;19997;-68
2021/05/25 02:03:05;;;;;;;7.82;4.03;;;7.50;99.90;;;;;;5012589;28;20044;-68
2021/05/25 02:05:32;;;;;;;6.25;4.15;;;7.50;99.90;;;;;;5012760;28;20381;-67
2021/05/25 02:07:59;;;;;;;6.90;4.25;;;7.40;99.90;;;;;;5012569;28;20045;-67
2021/05/25 02:10:31;;;;;;;4.63;3.67;;;7.40;99.90;;;;;;5012720;28;20092;-67
2021/05/25 02:13:09;;;;;;;4.25;3.78;;;7.40;99.90;;;;;;5012374;28;20018;-68
2021/05/25 02:15:36;;;;;;;6.38;3.80;;;7.40;99.90;;;;;;5012498;28;20493;-67
2021/05/25 02:18:09;;;;;;;4.80;3.40;;;7.40;99.90;;;;;;5012419;28;20038;-67
2021/05/25 02:20:36;;;;;;;4.93;3.45;;;7.40;99.90;;;;;;5012759;28;20026;-67
2021/05/25 02:23:03;;;;;;;5.50;3.92;;;7.30;99.90;;;;;;5012447;28;20037;-68
2021/05/25 02:25:29;;;;;;;6.00;4.10;;;7.30;99.90;;;;;;5012319;28;20083;-67
2021/05/25 02:27:55;;;;;;;5.38;3.70;;;7.40;99.90;;;;;;5012597;28;20116;-68
2021/05/25 02:30:21;;;;;;;7.57;3.78;;;7.30;99.90;;;;;;5012502;28;20026;-68
2021/05/25 02:32:47;;;;;;;4.47;3.40;;;7.40;99.90;;;;;;5012551;28;20030;-68
2021/05/25 02:35:13;;;;;;;7.22;3.83;;;7.30;99.90;;;;;;5012042;28;20028;-68
2021/05/25 02:37:39;;;;;;;4.78;3.50;;;7.30;99.90;;;;;;5012034;28;20053;-68
2021/05/25 02:40:06;;;;;;;5.38;3.72;;;7.30;99.90;;;;;;5012339;28;20030;-68
2021/05/25 02:42:32;;;;;;;4.53;3.88;;;7.30;99.90;;;;;;5014526;28;20026;-68
2021/05/25 02:44:58;;;;;;;5.88;4.03;;;7.30;99.90;;;;;;5016267;28;20033;-68
2021/05/25 02:47:24;;;;;;;4.72;3.85;;;7.30;99.90;;;;;;5016109;28;20030;-69
2021/05/25 02:49:49;;;;;;;6.07;4.05;;;7.30;99.90;;;;;;5016109;28;20113;-68
2021/05/25 02:52:15;;;;;;;4.55;3.75;;;7.30;99.90;;;;;;5015952;28;20022;-68
2021/05/25 02:54:41;;;;;;;5.35;3.85;;;7.30;99.90;;;;;;5016060;28;20034;-68
2021/05/25 02:57:08;;;;;;;4.72;3.53;;;7.30;99.90;;;;;;5015643;28;20084;-68
2021/05/25 02:59:34;;;;;;;5.68;3.30;;;7.30;99.90;;;;;;5016145;28;20033;-68
2021/05/25 03:02:00;;;;;;;4.03;2.97;;;7.30;99.90;;;;;;5015713;28;20057;-68
2021/05/25 03:04:26;;;;;;;3.90;3.20;;;7.30;99.90;;;;;;5015871;28;20061;-67
2021/05/25 03:06:51;;;;;;;4.20;3.17;;;7.30;99.90;;;;;;5015667;28;20018;-67
2021/05/25 03:09:17;;;;;;;7.00;3.30;;;7.40;99.90;;;;;;5015678;28;20037;-67
2021/05/25 03:11:44;;;;;;;3.78;3.00;;;7.30;99.90;;;;;;5015688;28;20090;-67
2021/05/25 03:14:10;;;;;;;3.30;2.90;;;7.40;99.90;;;;;;5015488;28;20052;-67
2021/05/25 03:16:36;;;;;;;3.78;2.97;;;7.30;99.90;;;;;;4998110;28;20504;-68
2021/05/25 03:19:02;;;;;;;4.20;2.92;;;7.30;99.90;;;;;;4997758;28;20037;-68
2021/05/25 03:21:28;;;;;;;5.45;3.38;;;7.30;99.90;;;;;;5015590;28;20109;-68
2021/05/25 03:23:54;;;;;;;3.95;3.17;;;7.30;99.90;;;;;;5015677;28;20513;-68
2021/05/25 03:26:21;;;;;;;4.25;2.92;;;7.30;99.90;;;;;;5015283;28;20026;-67
2021/05/25 03:28:47;;;;;;;4.50;3.03;;;7.30;99.90;;;;;;5015633;28;20018;-68
2021/05/25 03:31:13;;;;;;;4.20;3.20;;;7.30;99.90;;;;;;5015297;28;20026;-68
2021/05/25 03:33:39;;;;;;;4.40;3.80;;;7.30;99.90;;;;;;5015248;28;20022;-67
2021/05/25 03:36:05;;;;;;;4.95;3.53;;;7.30;99.90;;;;;;5014876;28;20053;-68
2021/05/25 03:38:30;;;;;;;4.40;3.78;;;7.30;99.90;;;;;;5015121;28;20072;-67
2021/05/25 03:40:57;;;;;;;5.05;4.10;;;7.30;99.90;;;;;;5015243;28;20026;-68
2021/05/25 03:43:23;;;;;;;5.88;4.20;;;7.30;99.90;;;;;;5014941;28;20057;-68
2021/05/25 03:45:49;;;;;;;4.75;3.47;;;7.30;99.90;;;;;;5015056;28;20056;-68
2021/05/25 03:48:16;;;;;;;4.75;4.03;;;7.30;99.90;;;;;;5014801;28;20026;-68
2021/05/25 03:50:42;;;;;;;6.93;4.57;;;7.30;99.90;;;;;;5015242;28;20026;-68
2021/05/25 03:53:08;;;;;;;6.22;4.85;;;7.30;99.90;;;;;;5014833;28;20436;-68
2021/05/25 03:55:43;;;;;;;6.90;4.70;;;7.30;99.90;;;;;;5015186;28;20028;-67
2021/05/25 04:00:55;;;;;;;6.60;4.80;;;7.30;99.90;;;;;;5014983;28;20025;-68
2021/05/25 04:03:22;;;;;;;6.63;5.05;;;7.40;99.90;;;;;;5014861;28;20029;-68
2021/05/25 04:05:48;;;;;;;6.70;4.78;;;7.40;99.90;;;;;;5014678;28;20028;-68
2021/05/25 04:08:16;;;;;;;7.63;5.28;;;7.40;99.90;;;;;;5014581;28;20026;-69
2021/05/25 04:10:42;;;;;;;6.22;4.85;;;7.50;99.90;;;;;;5014711;28;20032;-67
2021/05/25 04:13:08;;;;;;;6.30;5.05;;;7.50;99.90;;;;;;5014439;28;20230;-68
2021/05/25 04:15:34;;;;;;;6.18;4.50;;;7.50;99.90;;;;;;5014540;28;20026;-67
2021/05/25 04:18:01;;;;;;;5.35;4.60;;;7.50;99.90;;;;;;5014518;28;20042;-67
2021/05/25 04:20:27;;;;;;;5.55;4.50;;;7.50;99.90;;;;;;5014598;28;20494;-68
2021/05/25 04:22:53;;;;;;;10.27;4.75;;;7.50;99.90;;;;;;5014359;28;20045;-69
2021/05/25 04:25:18;;;;;;;5.75;4.82;;;7.60;99.90;;;;;;5014115;28;20123;-68
2021/05/25 04:27:44;;;;;;;8.95;5.20;;;7.50;99.90;;;;;;5014515;28;20026;-68
2021/05/25 04:30:11;;;;;;;7.03;5.50;;;7.50;99.90;;;;;;5014298;28;20461;-67
2021/05/25 04:32:37;;;;;;;5.18;4.22;;;7.60;99.90;;;;;;5014366;28;20030;-68
2021/05/25 04:35:05;;;;;;;6.13;5.00;;;7.60;99.90;;;;;;5014314;28;20033;-68
2021/05/25 04:37:30;;;;;;;5.80;4.97;;;7.50;99.90;;;;;;5013735;28;20125;-68
2021/05/25 04:39:56;;;;;;;7.05;5.38;;;7.50;99.90;;;;;;5014323;28;20125;-68
2021/05/25 04:42:22;;;;;;;7.60;4.75;;;7.50;99.90;;;;;;5013506;28;20411;-67
2021/05/25 04:44:48;;;;;;;6.25;4.75;;;7.50;99.90;;;;;;5013806;28;20030;-69
2021/05/25 04:47:14;;;;;;;5.90;4.90;;;7.60;99.90;;;;;;5013875;28;20025;-69
2021/05/25 04:49:40;;;;;;;6.43;5.40;;;7.80;99.90;;;;;;5013832;28;20434;-67
2021/05/25 04:52:07;;;;;;;6.55;4.90;;;7.70;99.90;;;;;;5013392;28;20541;-67
2021/05/25 04:54:33;;;;;;;5.20;4.70;;;7.70;99.90;;;;;;5013734;28;20030;-66
2021/05/25 04:57:00;;;;;;;6.10;4.78;;;7.60;99.90;;;;;;5013563;28;20025;-69
2021/05/25 04:59:26;;;;;;;4.82;4.30;;;7.60;99.90;;;;;;5013530;28;20048;-69
2021/05/25 05:01:51;;;;;;;6.53;5.10;;;7.60;99.90;;;;;;5014606;28;20522;-69
2021/05/25 05:04:17;;;;;;;5.32;4.82;;;7.60;99.90;;;;;;5012659;28;20474;-70
2021/05/25 05:06:43;;;;;;;6.57;4.68;;;7.70;99.90;;;;;;5014459;28;20049;-69
2021/05/25 05:09:09;;;;;;;5.70;4.80;;;7.70;99.90;;;;;;5013556;28;20466;-68
2021/05/25 05:11:35;;;;;;;6.18;4.68;;;7.70;99.90;;;;;;5013779;28;20465;-69
2021/05/25 05:14:01;;;;;;;5.55;4.93;;;7.60;99.90;;;;;;5013392;28;20025;-69
2021/05/25 05:16:27;;;;;;;5.05;4.55;;;7.60;99.90;;;;;;5013539;28;20026;-68
2021/05/25 05:18:52;;;;;;;4.97;4.43;;;7.80;99.90;;;;;;5013518;28;20107;-69
2021/05/25 05:21:18;;;;;;;4.95;4.35;;;7.70;99.90;;;;;;5013265;28;20057;-69
2021/05/25 05:23:44;;;;;;;5.15;4.10;;;7.70;99.90;;;;;;5013040;28;20146;-69
2021/05/25 05:26:11;;;;;;;4.05;3.65;;;7.60;99.90;;;;;;5013100;28;20025;-69
2021/05/25 05:28:37;;;;;;;7.80;4.10;;;7.60;99.90;;;;;;5013221;28;20030;-69
2021/05/25 05:31:03;;;;;;;7.43;3.45;;;7.60;99.90;;;;;;5013575;28;20038;-69
2021/05/25 05:33:29;;;;;;;5.38;3.95;;;7.60;99.90;;;;;;5013334;28;20030;-70
2021/05/25 05:35:54;;;;;;;14.23;4.40;;;9.10;99.90;;;;;;5012865;28;20061;-70
2021/05/25 05:38:22;;;;;;;5.00;4.00;;;9.50;99.90;;;;;;5012777;28;20064;-70
2021/05/25 05:40:48;;;;;;;5.30;4.43;;;9.10;99.90;;;;;;5013004;28;20497;-69
2021/05/25 05:43:14;;;;;;;6.13;4.40;;;8.70;99.90;;;;;;5012735;28;20062;-69
2021/05/25 05:45:40;;;;;;;5.68;4.63;;;8.40;99.90;;;;;;5012778;28;20065;-69
2021/05/25 05:48:06;;;;;;;4.32;3.92;;;8.30;99.90;;;;;;5012824;28;20030;-70
2021/05/25 05:50:32;;;;;;;4.95;4.10;;;8.20;99.90;;;;;;5013002;28;20026;-69
2021/05/25 05:52:58;;;;;;;5.40;4.38;;;8.10;99.90;;;;;;5012964;28;20037;-69
2021/05/25 05:55:25;;;;;;;5.32;4.47;;;8.10;99.90;;;;;;5012560;28;20393;-67
2021/05/25 05:57:53;;;;;;;5.05;4.05;;;8.10;99.90;;;;;;5012826;28;20061;-68
2021/05/25 06:00:19;;;;;;;5.25;4.05;;;8.10;99.90;;;;;;5012860;28;20401;-68
2021/05/25 06:02:46;;;;;;;4.97;3.95;;;8.10;99.90;;;;;;5012501;28;20026;-69
2021/05/25 06:05:12;;;;;;;7.00;4.15;;;8.10;99.90;;;;;;5012267;28;20500;-68
2021/05/25 06:07:38;;;;;;;4.63;3.88;;;8.10;99.90;;;;;;5012462;28;20473;-67
2021/05/25 06:10:05;;;;;;;5.55;4.20;;;8.10;99.90;;;;;;5012385;28;20034;-68
2021/05/25 06:12:31;;;;;;;6.22;4.53;;;8.00;99.90;;;;;;5012203;28;20030;-68
2021/05/25 06:14:57;;;;;;;5.47;4.45;;;8.10;99.90;;;;;;5012285;28;20029;-70
2021/05/25 06:17:23;;;;;;;5.63;4.50;;;8.10;99.90;;;;;;5012008;28;20034;-70
2021/05/25 06:19:49;;;;;;;5.80;4.32;;;8.10;99.90;;;;;;5012337;28;20037;-70
2021/05/25 06:22:15;;;;;;;4.07;2.55;;;8.00;99.90;;;;;;5012136;28;20038;-71
2021/05/25 06:24:40;;;;;;;6.00;4.00;;;8.30;99.90;;;;;;5012512;28;20026;-69
2021/05/25 06:27:06;;;;;;;6.78;3.83;;;9.30;99.90;;;;;;5012457;28;20026;-69
2021/05/25 06:29:32;;;;;;;4.30;3.78;;;9.20;99.90;;;;;;5012356;28;20048;-69
2021/05/25 06:32:01;;;;;;;5.85;3.85;;;8.90;99.90;;;;;;5012182;28;20394;-69
2021/05/25 06:34:30;;;;;;;6.40;4.40;;;8.70;99.90;;;;;;5011965;28;20531;-69
2021/05/25 06:36:56;;;;;;;5.43;4.40;;;8.60;99.90;;;;;;5011930;28;20042;-69
2021/05/25 06:39:22;;;;;;;5.35;4.57;;;8.50;99.90;;;;;;5011914;28;20080;-69
2021/05/25 06:41:48;;;;;;;7.32;4.45;;;8.40;99.90;;;;;;5012102;28;20022;-69
2021/05/25 06:44:13;;;;;;;7.55;5.60;;;8.30;99.90;;;;;;5012208;28;20077;-69
2021/05/25 06:46:39;;;;;;;12.25;7.05;;;8.30;99.90;;;;;;5012390;28;20485;-69
2021/05/25 06:49:05;;;;;;;8.80;5.80;;;8.30;99.90;;;;;;5012287;28;20022;-69
2021/05/25 06:51:31;;;;;;;10.13;6.40;;;8.30;99.90;;;;;;5011999;28;20033;-69
2021/05/25 06:53:56;;;;;;;7.22;6.53;;;8.20;99.90;;;;;;5012286;28;20030;-69
2021/05/25 06:56:22;;;;;;;6.80;6.10;;;8.20;99.90;;;;;;5012259;28;20501;-69
2021/05/25 06:58:48;;;;;;;6.50;5.88;;;8.20;99.90;;;;;;5011761;28;20397;-69
2021/05/25 07:01:14;;;;;;;6.57;5.80;;;8.20;99.90;;;;;;5012044;28;20022;-69
2021/05/25 07:03:39;;;;;;;4.00;2.20;;;8.20;99.90;;;;;;5012134;28;20033;-71
2021/05/25 07:06:05;;;;;;;6.03;5.43;;;8.70;99.90;;;;;;5011935;28;20497;-69
2021/05/25 07:08:31;;;;;;;9.48;5.88;;;9.70;99.90;;;;;;5011345;28;20030;-70
2021/05/25 07:10:57;;;;;;;5.88;5.13;;;9.40;99.90;;;;;;5011589;28;20041;-71
2021/05/25 07:13:22;;;;;;;7.70;5.40;;;9.10;99.90;;;;;;5011676;28;20033;-70
2021/05/25 07:15:48;;;;;;;5.95;5.20;;;8.90;99.90;;;;;;5011960;28;20038;-70
2021/05/25 07:18:16;;;;;;;6.55;5.70;;;8.80;99.90;;;;;;5011477;28;20045;-70
2021/05/25 07:20:43;;;;;;;6.03;5.32;;;8.80;99.90;;;;;;5012033;28;20049;-70
2021/05/25 07:23:10;;;;;;;7.70;5.35;;;8.80;99.90;;;;;;5011958;28;20034;-70
2021/05/25 07:25:37;;;;;;;4.72;4.30;;;8.70;99.90;;;;;;5011832;28;20110;-70
2021/05/25 07:28:04;;;;;;;4.57;4.15;;;8.80;99.90;;;;;;5013407;28;20097;-71
2021/05/25 07:30:30;;;;;;;5.55;4.57;;;8.80;99.90;;;;;;5015040;28;20034;-70
2021/05/25 07:32:55;;;;;;;7.30;4.82;;;8.90;99.90;;;;;;5015342;28;20022;-69
2021/05/25 07:35:21;;;;;;;9.60;4.40;;;8.80;99.90;;;;;;5014801;28;20385;-71
2021/05/25 07:37:47;;;;;;;6.18;4.78;;;8.80;99.90;;;;;;5014423;28;20116;-71
2021/05/25 07:40:15;;;;;;;5.28;4.78;;;8.80;99.90;;;;;;5014887;28;20018;-71
2021/05/25 07:42:42;;;;;;;7.57;4.43;;;8.80;99.90;;;;;;5012415;28;20508;-70
2021/05/25 07:45:08;;;;;;;4.32;3.90;;;8.80;99.90;;;;;;5014973;28;20026;-70
2021/05/25 07:47:34;;;;;;;7.18;3.70;;;8.70;99.90;;;;;;5014882;28;20030;-69
2021/05/25 07:50:12;;;;;;;5.95;3.03;;;8.70;99.90;;;;;;5014430;28;20045;-70
2021/05/25 07:52:44;;;;;;;4.47;3.47;;;8.70;99.90;;;;;;5013235;28;20101;-69
2021/05/25 07:55:10;;;;;;;3.35;2.90;;;8.60;99.90;;;;;;5014778;28;20121;-70
2021/05/25 07:57:37;;;;;;;10.75;3.05;;;8.70;99.90;;;;;;5014589;28;20038;-70
2021/05/25 08:00:05;;;;;;;3.97;2.60;;;8.70;99.90;;;;;;5014792;28;20029;-70
2021/05/25 08:02:30;;;;;;;4.28;2.92;;;8.70;99.90;;;;;;5014699;28;20104;-70
2021/05/25 08:04:56;;;;;;;2.88;2.53;;;8.70;99.90;;;;;;4997053;28;20058;-71
2021/05/25 08:07:22;;;;;;;2.40;2.20;;;8.70;99.90;;;;;;5014575;28;20462;-70
2021/05/25 08:09:47;;;;;;;4.40;2.53;;;8.70;99.90;;;;;;5014589;28;20034;-70
2021/05/25 08:12:13;;;;;;;3.25;2.47;;;8.60;99.90;;;;;;5014787;28;20018;-70
2021/05/25 08:14:39;;;;;;;2.90;2.30;;;8.60;99.90;;;;;;4996941;28;20045;-70
2021/05/25 08:17:16;;;;;;;2.92;2.50;;;8.60;99.90;;;;;;5014530;28;20045;-70
2021/05/25 08:19:43;;;;;;;3.50;2.65;;;8.70;99.90;;;;;;5014800;28;20030;-70
2021/05/25 08:22:09;;;;;;;5.60;2.30;;;8.90;99.90;;;;;;5014581;28;20477;-70
2021/05/25 08:24:35;;;;;;;2.85;2.47;;;8.90;99.90;;;;;;5014256;28;20129;-70
2021/05/25 08:27:00;;;;;;;54.45;5.50;;;9.10;99.90;;;;;;5014647;28;20029;-70
2021/05/25 08:29:26;;;;;;;4.00;2.20;;;9.10;99.90;;;;;;5014066;28;20473;-70
2021/05/25 08:31:52;;;;;;;2.30;2.10;;;9.20;99.90;;;;;;5014257;28;20033;-71
2021/05/25 08:34:18;;;;;;;7.63;2.13;;;9.20;99.90;;;;;;5013933;28;20029;-71
2021/05/25 08:36:44;;;;;;;16.10;3.30;;;9.40;99.90;;;;;;5014009;28;20072;-70
2021/05/25 08:39:09;;;;;;;3.22;2.35;;;9.50;99.90;;;;;;5012880;28;20030;-69
2021/05/25 08:41:36;;;;;;;2.92;1.73;;;9.70;99.90;;;;;;5013964;28;20022;-70
2021/05/25 08:44:03;;;;;;;2.78;1.80;;;10.20;99.90;;;;;;5013896;28;20034;-70
2021/05/25 08:46:28;;;;;;;2.20;1.73;;;10.40;99.90;;;;;;5014004;28;20025;-70
2021/05/25 08:48:56;;;;;;;1.98;1.77;;;10.30;99.90;;;;;;5013962;28;20493;-70
2021/05/25 08:51:23;;;;;;;3.63;1.95;;;10.20;99.90;;;;;;5013674;28;20046;-70
2021/05/25 08:53:49;;;;;;;13.77;2.30;;;10.10;99.90;;;;;;5013783;28;20028;-70
2021/05/25 08:56:14;;;;;;;3.17;1.85;;;10.20;99.90;;;;;;5014083;28;20033;-70
2021/05/25 08:58:40;;;;;;;2.53;2.05;;;10.20;99.90;;;;;;5013367;28;20397;-70
2021/05/25 09:01:06;;;;;;;3.83;2.10;;;10.10;99.90;;;;;;5013314;28;20032;-70
2021/05/25 09:03:32;;;;;;;2.15;1.83;;;10.20;99.90;;;;;;5013205;28;20040;-69
2021/05/25 09:06:07;;;;;;;9.35;1.73;;;10.30;99.90;;;;;;5013472;28;20022;-70
2021/05/25 09:08:36;;;;;;;2.20;1.75;;;10.40;99.90;;;;;;5013199;28;20501;-69
2021/05/25 09:11:10;;;;;;;2.08;1.70;;;10.40;99.90;;;;;;5012842;28;20018;-71
2021/05/25 09:13:36;;;;;;;3.97;1.90;;;10.50;99.90;;;;;;5013480;28;20037;-70
2021/05/25 09:16:03;;;;;;;2.95;1.60;;;10.50;99.90;;;;;;5013567;28;20030;-70
2021/05/25 09:18:31;;;;;;;2.65;1.40;;;10.50;99.90;;;;;;5013084;28;20038;-70
2021/05/25 09:21:00;;;;;;;2.67;1.60;;;10.40;99.90;;;;;;5013570;28;20044;-70
2021/05/25 09:23:32;;;;;;;2.83;1.85;;;10.50;99.90;;;;;;5013040;28;20116;-69
2021/05/25 09:28:25;;;;;;;1.73;1.58;;;10.40;99.90;;;;;;5013245;28;20045;-70
2021/05/25 09:30:51;;;;;;;1.88;1.65;;;10.40;99.90;;;;;;5013066;28;20061;-69
2021/05/25 09:33:18;;;;;;;1.75;1.48;;;10.40;99.90;;;;;;5013245;28;20022;-70
2021/05/25 09:35:47;;;;;;;1.83;1.63;;;10.40;99.90;;;;;;5012695;28;20508;-69
2021/05/25 09:38:18;;;;;;;2.28;1.65;;;10.30;99.90;;;;;;5012983;28;20045;-69
2021/05/25 09:40:49;;;;;;;3.38;1.70;;;10.40;99.90;;;;;;5013060;28;20381;-69
2021/05/25 09:43:24;;;;;;;2.10;1.52;;;10.40;99.90;;;;;;5012945;28;20569;-69
2021/05/25 09:45:56;;;;;;;5.88;1.70;;;10.50;99.90;;;;;;5012884;28;20500;-69
2021/05/25 09:48:44;;;;;;;2.55;1.90;;;10.50;99.90;;;;;;5012697;28;20033;-69
2021/05/25 09:51:32;;;;;;;2.50;1.77;;;10.60;99.90;;;;;;5011612;28;20397;-69
2021/05/25 09:53:59;;;;;;;2.60;1.58;;;10.70;99.90;;;;;;5012870;28;20025;-69
2021/05/25 09:56:29;;;;;;;9.77;2.45;;;10.60;99.90;;;;;;5012885;28;20049;-69
2021/05/25 09:58:57;;;;;;;2.63;1.45;;;10.50;99.90;;;;;;5012217;28;20068;-71
2021/05/25 10:01:36;;;;;;;3.05;1.98;;;10.40;99.90;;;;;;5012821;28;20037;-71
2021/05/25 10:04:15;;;;;;;1.98;1.40;;;10.40;99.90;;;;;;5012578;28;20071;-71
2021/05/25 10:06:44;;;;;;;3.25;1.50;;;10.30;99.90;;;;;;5012474;28;20036;-76
2021/05/25 10:09:11;;;;;;;1.67;1.52;;;10.40;99.90;;;;;;5012463;28;20045;-69
2021/05/25 10:11:45;;;;;;;3.83;1.45;;;10.90;99.90;;;;;;5012346;28;20022;-70
2021/05/25 10:14:12;;;;;;;3.30;1.60;;;10.90;99.90;;;;;;5011666;28;20022;-70
2021/05/25 10:16:42;;;;;;;2.72;1.80;;;10.80;99.90;;;;;;5011307;28;20079;-71
2021/05/25 10:21:35;;;;;;;4.95;1.70;;;10.60;99.90;;;;;;5012534;28;20021;-70
2021/05/25 10:24:02;;;;;;;2.78;1.73;;;10.60;99.90;;;;;;5012455;28;20130;-71
2021/05/25 10:26:28;;;;;;;2.20;1.50;;;10.60;99.90;;;;;;5012072;28;20022;-71
2021/05/25 10:28:55;;;;;;;1.63;1.40;;;10.60;99.90;;;;;;5012387;28;20424;-71
2021/05/25 10:31:27;;;;;;;2.13;1.38;;;10.60;99.90;;;;;;5011626;28;20018;-71
2021/05/25 10:34:32;;;;;;;1.88;1.58;;;10.70;99.90;;;;;;5009369;28;20041;-71
2021/05/25 10:36:59;;;;;;;1.75;1.42;;;10.70;99.90;;;;;;4971161;28;20038;-71
2021/05/25 10:39:37;;;;;;;2.33;1.55;;;10.80;99.90;;;;;;5011431;28;20045;-71
2021/05/25 10:42:18;;;;;;;3.85;1.52;;;10.90;99.90;;;;;;5010461;28;20026;-70
2021/05/25 10:44:49;;;;;;;2.88;1.77;;;10.80;99.90;;;;;;5010073;28;20040;-71
2021/05/25 10:47:24;;;;;;;1.55;1.40;;;10.70;99.90;;;;;;5009072;28;20018;-71
2021/05/25 10:53:03;;;;;;;1.80;1.50;;;10.80;99.90;;;;;;5007158;28;20045;-70
2021/05/25 10:55:30;;;;;;;4.05;1.70;;;10.90;99.90;;;;;;5011676;28;20104;-69
2021/05/25 10:57:57;;;;;;;2.53;1.25;;;11.00;99.90;;;;;;5011999;28;20121;-70
2021/05/25 11:00:34;;;;;;;2.47;1.70;;;11.10;99.90;;;;;;5011886;28;20101;-69
2021/05/25 11:03:02;;;;;;;2.95;1.40;;;11.10;99.90;;;;;;5013594;28;20026;-70
2021/05/25 11:05:35;;;;;;;3.33;1.67;;;11.10;99.90;;;;;;5015896;28;20026;-71
2021/05/25 11:08:13;;;;;;;3.28;1.60;;;11.40;99.90;;;;;;5015860;28;20026;-71
2021/05/25 11:10:46;;;;;;;2.75;1.50;;;11.20;99.90;;;;;;5015560;28;20038;-70
2021/05/25 11:13:21;;;;;;;3.78;2.00;;;11.00;99.90;;;;;;5015852;28;20091;-70
2021/05/25 11:16:07;;;;;;;3.97;1.50;;;11.00;99.90;;;;;;5015713;28;20466;-71
2021/05/25 11:18:43;;;;;;;4.35;1.50;;;10.90;99.90;;;;;;5015541;28;20563;-71
2021/05/25 11:21:32;;;;;;;6.97;1.80;;;10.90;99.90;;;;;;5015782;28;20037;-71
2021/05/25 11:23:58;;;;;;;4.38;1.52;;;10.80;99.90;;;;;;5015462;28;20026;-68
2021/05/25 11:26:59;;;;;;;2.72;1.40;;;10.90;99.90;;;;;;5015289;28;20076;-68
2021/05/25 11:29:28;;;;;;;2.03;1.30;;;11.00;99.90;;;;;;5015250;28;20014;-68
2021/05/25 11:31:58;;;;;;;4.60;1.95;;;11.00;99.90;;;;;;5015333;28;20022;-68
2021/05/25 11:34:25;;;;;;;4.65;2.17;;;11.10;99.90;;;;;;5015197;28;20133;-68
2021/05/25 11:37:05;;;;;;;1.38;1.27;;;11.20;99.90;;;;;;5015143;28;20049;-68
2021/05/25 11:39:35;;;;;;;4.95;1.50;;;11.10;99.90;;;;;;5014897;28;20076;-68
2021/05/25 11:42:05;;;;;;;4.57;1.67;;;11.20;99.90;;;;;;5015456;28;20041;-68
2021/05/25 11:44:34;;;;;;;1.70;1.60;;;11.10;99.90;;;;;;5015209;28;20025;-68
2021/05/25 11:47:05;;;;;;;3.30;1.60;;;11.10;99.90;;;;;;5015132;28;20022;-70
2021/05/25 11:49:42;;;;;;;1.80;1.55;;;11.20;99.90;;;;;;5014906;28;20022;-71
2021/05/25 11:52:29;;;;;;;4.78;1.73;;;11.30;99.90;;;;;;5014874;28;20355;-71
2021/05/25 11:55:00;;;;;;;3.33;1.73;;;11.30;99.90;;;;;;5014869;28;20061;-70
2021/05/25 11:57:27;;;;;;;2.20;1.83;;;11.70;99.90;;;;;;5014449;28;20024;-73
2021/05/25 11:59:55;;;;;;;2.03;1.65;;;11.90;99.90;;;;;;5014515;28;20101;-74
2021/05/25 12:02:29;;;;;;;3.10;1.40;;;11.80;99.90;;;;;;5014707;28;20040;-73
2021/05/25 12:05:16;;;;;;;3.47;1.83;;;11.80;99.90;;;;;;5014476;28;20223;-69
2021/05/25 12:07:44;;;;;;;1.70;1.50;;;12.00;99.90;;;;;;5014556;28;20022;-69
2021/05/25 12:10:13;;;;;;;4.90;1.90;;;11.90;99.90;;;;;;5014676;28;20030;-69
2021/05/25 12:12:43;;;;;;;2.58;1.67;;;11.80;99.90;;;;;;5014439;28;20700;-69
2021/05/25 12:15:21;;;;;;;2.20;1.90;;;11.70;99.90;;;;;;5014306;28;20073;-69
2021/05/25 12:17:58;;;;;;;7.18;1.67;;;11.70;99.90;;;;;;4996685;28;20496;-69
2021/05/25 12:20:46;;;;;;;4.85;1.90;;;11.70;99.90;;;;;;5014774;28;20034;-69
2021/05/25 12:23:15;;;;;;;2.63;1.90;;;11.70;99.90;;;;;;5014375;28;20485;-72
2021/05/25 12:25:42;;;;;;;4.25;1.40;;;11.60;99.90;;;;;;5014282;28;20061;-72
2021/05/25 12:28:17;;;;;;;5.22;1.90;;;11.70;99.90;;;;;;5014546;28;20026;-72
2021/05/25 12:30:53;;;;;;;3.08;1.63;;;11.90;99.90;;;;;;5014124;28;20029;-72
2021/05/25 12:33:27;;;;;;;7.03;2.10;;;12.00;99.90;;;;;;5014284;28;20213;-72
2021/05/25 12:36:10;;;;;;;2.25;1.55;;;12.00;99.90;;;;;;5013933;28;20402;-72
2021/05/25 12:38:36;;;;;;;2.55;1.60;;;12.00;99.90;;;;;;5013906;28;20045;-72
2021/05/25 12:41:02;;;;;;;2.13;1.50;;;12.00;99.90;;;;;;5014203;28;20025;-72
2021/05/25 12:43:30;;;;;;;4.22;1.50;;;11.80;99.90;;;;;;5014049;28;20037;-72
2021/05/25 12:46:07;;;;;;;2.13;1.65;;;11.80;99.90;;;;;;5014174;28;20022;-72
2021/05/25 12:48:36;;;;;;;3.03;1.83;;;11.80;99.90;;;;;;5013803;28;20026;-72
2021/05/25 12:51:02;;;;;;;2.35;1.80;;;11.70;99.90;;;;;;5013976;28;20440;-72
2021/05/25 12:53:28;;;;;;;13.23;2.20;;;11.80;99.90;;;;;;5014152;28;20022;-72
2021/05/25 12:55:54;;;;;;;2.33;1.65;;;11.80;99.90;;;;;;5013507;28;20053;-72
2021/05/25 12:58:39;;;;;;;3.72;2.10;;;11.90;99.90;;;;;;5013626;28;20432;-74
2021/05/25 13:01:31;;;;;;;2.20;1.60;;;11.90;99.90;;;;;;5013932;28;20460;-69
2021/05/25 13:04:00;;;;;;;5.05;1.90;;;11.90;99.90;;;;;;5013593;28;20034;-68
2021/05/25 13:06:40;;;;;;;3.70;1.67;;;11.90;99.90;;;;;;5013829;28;20445;-66
2021/05/25 13:09:15;;;;;;;2.70;1.55;;;11.90;99.90;;;;;;5013508;28;20025;-67